Time;durP1;ratioP1;P1;durP2;ratioP2;P2;SDS_P1;SDS_P2;PMS_P1;PMS_P2;Temp;Humidity;BMP_temperature;BMP_pressure;BME280_temperature;BME280_humidity;BME280_pressure;Samples;Min_cycle;Max_cycle;Signal;HPM_P1;HPM_P2
2022/09/24 00:01:12;;;;;;;1.23;0.82;;;21.50;71.30;;;;;;5147269;27;45624;-74
2022/09/24 00:03:40;;;;;;;1.00;0.70;;;21.50;71.30;;;;;;5144501;27;47590;-74
2022/09/24 00:06:08;;;;;;;0.70;0.70;;;21.50;71.30;;;;;;5144414;27;45473;-74
2022/09/24 00:08:35;;;;;;;1.00;0.77;;;21.50;71.30;;;;;;5147831;27;45455;-74
2022/09/24 00:11:04;;;;;;;1.30;0.80;;;21.50;71.20;;;;;;5147992;27;45314;-74
2022/09/24 00:13:34;;;;;;;3.22;1.10;;;21.50;71.30;;;;;;5143669;27;46851;-75
2022/09/24 00:16:03;;;;;;;2.10;1.00;;;21.50;71.40;;;;;;5140567;27;45377;-75
2022/09/24 00:18:31;;;;;;;1.17;0.75;;;21.50;71.40;;;;;;5144894;27;45238;-75
2022/09/24 00:20:58;;;;;;;1.10;0.80;;;21.50;71.40;;;;;;5143559;27;45281;-74
2022/09/24 00:23:24;;;;;;;1.52;0.90;;;21.50;71.40;;;;;;5129830;27;47053;-74
2022/09/24 00:28:37;;;;;;;1.45;0.90;;;21.50;71.40;;;;;;5141010;27;45468;-74
2022/09/24 00:31:06;;;;;;;1.88;1.00;;;21.50;71.40;;;;;;5144004;27;45418;-74
2022/09/24 00:33:34;;;;;;;1.23;0.90;;;21.50;71.50;;;;;;5147249;27;46552;-74
2022/09/24 00:36:03;;;;;;;1.55;0.98;;;21.50;71.50;;;;;;5146691;27;45418;-74
2022/09/24 00:38:30;;;;;;;1.88;1.00;;;21.50;71.40;;;;;;5147717;27;45472;-74
2022/09/24 00:40:58;;;;;;;2.22;0.90;;;21.50;71.40;;;;;;5146512;27;45580;-74
2022/09/24 00:43:27;;;;;;;2.72;1.13;;;21.50;71.50;;;;;;5147074;27;47869;-74
2022/09/24 00:46:00;;;;;;;1.00;0.80;;;21.50;71.40;;;;;;5146571;27;45328;-74
2022/09/24 00:48:27;;;;;;;1.30;1.08;;;21.50;71.40;;;;;;5138967;27;45256;-74
2022/09/24 00:50:55;;;;;;;1.70;1.10;;;21.50;71.40;;;;;;5147107;27;45419;-74
2022/09/24 00:53:27;;;;;;;1.58;0.80;;;21.50;71.40;;;;;;5146594;27;46854;-74
2022/09/24 00:55:56;;;;;;;1.13;1.00;;;21.50;71.50;;;;;;5145478;27;45366;-74
2022/09/24 00:58:23;;;;;;;0.85;0.80;;;21.50;71.50;;;;;;5146868;27;45342;-74
2022/09/24 01:00:55;;;;;;;2.42;0.90;;;21.50;71.40;;;;;;5146454;27;45238;-74
2022/09/24 01:03:25;;;;;;;1.45;0.90;;;21.50;71.50;;;;;;5146577;27;47459;-74
2022/09/24 01:05:52;;;;;;;2.63;0.90;;;21.50;71.50;;;;;;5146592;27;45398;-74
2022/09/24 01:08:19;;;;;;;1.10;1.00;;;21.50;71.40;;;;;;5146634;27;45437;-74
2022/09/24 01:10:58;;;;;;;1.00;0.90;;;21.50;71.50;;;;;;5147115;27;45587;-74
2022/09/24 01:13:41;;;;;;;1.20;0.93;;;21.50;71.50;;;;;;5146233;27;48970;-74
2022/09/24 01:16:15;;;;;;;1.08;0.90;;;21.50;71.50;;;;;;5143626;27;45256;-74
2022/09/24 01:18:50;;;;;;;0.82;0.70;;;21.50;71.50;;;;;;5144007;27;45303;-74
2022/09/24 01:21:36;;;;;;;1.02;0.73;;;21.50;71.60;;;;;;5144404;27;45335;-74
2022/09/24 01:24:29;;;;;;;0.90;0.85;;;21.50;71.60;;;;;;5141092;27;47303;-74
2022/09/24 01:27:03;;;;;;;1.17;0.90;;;21.50;71.40;;;;;;5141094;27;45413;-74
2022/09/24 01:29:44;;;;;;;1.30;0.80;;;21.50;71.40;;;;;;5146202;27;45307;-74
2022/09/24 01:32:18;;;;;;;1.27;1.00;;;21.50;71.60;;;;;;5143395;27;45236;-74
2022/09/24 01:34:49;;;;;;;2.15;1.10;;;21.50;71.40;;;;;;5144512;27;46967;-74
2022/09/24 01:37:21;;;;;;;1.30;0.77;;;21.50;71.40;;;;;;5146134;27;45485;-74
2022/09/24 01:39:49;;;;;;;3.33;1.58;;;21.50;71.40;;;;;;5145470;27;45338;-74
2022/09/24 01:42:17;;;;;;;1.42;1.08;;;21.50;71.50;;;;;;5146036;27;45457;-74
2022/09/24 01:44:47;;;;;;;1.45;1.05;;;21.60;71.50;;;;;;5136955;27;47966;-74
2022/09/24 01:47:19;;;;;;;1.65;0.95;;;21.50;71.50;;;;;;5126895;27;45383;-74
2022/09/24 01:49:46;;;;;;;1.63;0.80;;;21.50;71.40;;;;;;5130332;27;45681;-74
2022/09/24 01:52:19;;;;;;;1.98;1.08;;;21.50;71.40;;;;;;5144149;27;45479;-74
2022/09/24 01:54:50;;;;;;;1.92;1.00;;;21.60;71.60;;;;;;5127710;27;47050;-74
2022/09/24 01:57:21;;;;;;;1.20;1.10;;;21.50;71.50;;;;;;5136295;27;45405;-74
2022/09/24 01:59:56;;;;;;;1.80;1.00;;;21.50;71.50;;;;;;5150016;27;45328;-74
2022/09/24 02:02:27;;;;;;;2.03;0.88;;;21.50;71.50;;;;;;5149773;27;45434;-74
2022/09/24 02:05:01;;;;;;;2.08;1.15;;;21.50;71.50;;;;;;5148782;27;48150;-74
2022/09/24 02:07:34;;;;;;;1.33;0.98;;;21.50;71.60;;;;;;5137085;27;45260;-74
2022/09/24 02:10:01;;;;;;;1.27;1.00;;;21.50;71.60;;;;;;5141913;27;45338;-75
2022/09/24 02:12:32;;;;;;;1.45;1.05;;;21.50;71.70;;;;;;5149423;27;45254;-74
2022/09/24 02:15:07;;;;;;;1.67;1.15;;;21.50;71.60;;;;;;5149391;27;45459;-74
2022/09/24 02:17:37;;;;;;;1.65;0.95;;;21.50;71.50;;;;;;5149474;27;45287;-74
2022/09/24 02:20:12;;;;;;;1.08;0.98;;;21.50;71.50;;;;;;5146586;27;45289;-74
2022/09/24 02:22:41;;;;;;;1.00;0.75;;;21.50;71.50;;;;;;5149711;27;45422;-74
2022/09/24 02:25:13;;;;;;;1.50;1.10;;;21.50;71.50;;;;;;5149180;27;47340;-74
2022/09/24 02:27:40;;;;;;;1.45;1.00;;;21.50;71.50;;;;;;5148983;27;45326;-74
2022/09/24 02:30:09;;;;;;;1.13;1.02;;;21.50;71.50;;;;;;5138694;27;45272;-74
2022/09/24 02:32:39;;;;;;;1.25;0.85;;;21.50;71.50;;;;;;5146338;27;45269;-74
2022/09/24 02:35:09;;;;;;;1.65;1.10;;;21.50;71.50;;;;;;5145122;27;48339;-74
2022/09/24 02:37:37;;;;;;;1.42;1.10;;;21.50;71.50;;;;;;5132569;27;45460;-74
2022/09/24 02:40:06;;;;;;;1.25;1.10;;;21.50;71.50;;;;;;5128866;27;45286;-74
2022/09/24 02:42:35;;;;;;;0.80;0.77;;;21.50;71.50;;;;;;5141921;27;45432;-74
2022/09/24 02:45:03;;;;;;;1.38;0.93;;;21.50;71.60;;;;;;5137883;27;46560;-74
2022/09/24 02:47:31;;;;;;;1.10;1.00;;;21.50;71.50;;;;;;5149252;27;45806;-74
2022/09/24 02:49:58;;;;;;;1.60;1.10;;;21.50;71.50;;;;;;5148875;27;45318;-75
2022/09/24 02:52:27;;;;;;;2.13;1.20;;;21.50;71.70;;;;;;5149435;27;45611;-74
2022/09/24 02:54:53;;;;;;;1.77;1.15;;;21.50;71.40;;;;;;5148645;27;47503;-74
2022/09/24 02:57:20;;;;;;;1.52;1.10;;;21.50;71.40;;;;;;5131035;27;45270;-74
2022/09/24 02:59:47;;;;;;;2.15;1.15;;;21.50;71.70;;;;;;5128017;27;45382;-75
2022/09/24 03:02:14;;;;;;;1.67;1.00;;;21.50;71.40;;;;;;5127605;27;45434;-74
2022/09/24 03:04:42;;;;;;;1.23;0.93;;;21.50;71.60;;;;;;5139297;27;46189;-74
2022/09/24 03:07:13;;;;;;;1.67;1.20;;;21.50;71.50;;;;;;5139828;27;45242;-74
2022/09/24 03:09:40;;;;;;;1.88;1.13;;;21.50;71.50;;;;;;5128278;27;45417;-74
2022/09/24 03:12:07;;;;;;;1.17;0.90;;;21.50;71.30;;;;;;5128269;27;45369;-74
2022/09/24 03:14:33;;;;;;;1.35;0.88;;;21.50;71.40;;;;;;5137270;27;47265;-74
2022/09/24 03:17:00;;;;;;;1.25;1.08;;;21.50;71.30;;;;;;5148745;27;45311;-74
2022/09/24 03:19:27;;;;;;;2.17;1.20;;;21.50;71.40;;;;;;5148666;27;45424;-74
2022/09/24 03:21:55;;;;;;;1.20;1.00;;;21.50;71.40;;;;;;5148295;27;45548;-74
2022/09/24 03:24:26;;;;;;;1.30;0.93;;;21.50;71.40;;;;;;5146010;27;47029;-74
2022/09/24 03:26:53;;;;;;;1.20;1.08;;;21.50;71.40;;;;;;5147757;27;45245;-74
2022/09/24 03:30:58;;;;;;;1.42;1.00;;;21.50;71.40;;;;;;5148334;27;45354;-74
2022/09/24 03:32:06;;;;;;;1.27;1.02;;;21.50;71.40;;;;;;5147664;27;45200;-74
2022/09/24 03:34:33;;;;;;;1.23;0.95;;;21.50;71.50;;;;;;5144057;27;46550;-74
2022/09/24 03:37:01;;;;;;;2.78;1.08;;;21.50;71.40;;;;;;5147989;27;45304;-74
2022/09/24 03:39:28;;;;;;;1.95;1.17;;;21.50;71.40;;;;;;5147723;27;45344;-74
2022/09/24 03:41:55;;;;;;;2.95;1.13;;;21.50;71.40;;;;;;5141019;27;45320;-74
2022/09/24 03:44:22;;;;;;;1.38;1.05;;;21.50;71.40;;;;;;5147649;27;46626;-74
2022/09/24 03:46:48;;;;;;;1.13;1.02;;;21.50;72.30;;;;;;5136673;27;45728;-74
2022/09/24 03:49:15;;;;;;;1.10;0.90;;;21.50;71.40;;;;;;5140329;27;45279;-74
2022/09/24 03:51:42;;;;;;;2.10;1.48;;;21.50;71.30;;;;;;5127570;27;45328;-74
2022/09/24 03:54:11;;;;;;;1.10;1.00;;;21.50;71.30;;;;;;5147506;27;47052;-74
2022/09/24 03:56:37;;;;;;;1.63;1.08;;;21.50;71.30;;;;;;5147571;27;45298;-74
2022/09/24 03:59:04;;;;;;;1.45;1.15;;;21.50;71.60;;;;;;5145087;27;45367;-74
2022/09/24 04:01:32;;;;;;;1.20;1.00;;;21.50;71.30;;;;;;5147439;27;45254;-74
2022/09/24 04:03:59;;;;;;;2.05;1.30;;;21.50;71.40;;;;;;5147312;27;48189;-74
2022/09/24 04:06:26;;;;;;;1.52;1.05;;;21.50;71.40;;;;;;5147080;27;45361;-74
2022/09/24 04:08:53;;;;;;;1.73;1.25;;;21.50;71.50;;;;;;5147347;27;45346;-74
2022/09/24 04:11:22;;;;;;;1.83;1.50;;;21.40;71.30;;;;;;5147134;27;45593;-74
2022/09/24 04:13:52;;;;;;;2.40;1.33;;;21.50;71.40;;;;;;5146903;27;47362;-74
2022/09/24 04:16:18;;;;;;;1.27;1.10;;;21.50;71.30;;;;;;5147317;27;46055;-74
2022/09/24 04:18:47;;;;;;;1.20;1.02;;;21.50;71.40;;;;;;5139681;27;45601;-74
2022/09/24 04:21:14;;;;;;;1.10;1.00;;;21.50;71.40;;;;;;5128718;27;45527;-74
2022/09/24 04:23:41;;;;;;;1.58;1.20;;;21.40;71.50;;;;;;5145220;27;48420;-74
2022/09/24 04:26:08;;;;;;;1.73;1.17;;;21.40;71.30;;;;;;5146199;27;45375;-74
2022/09/24 04:28:36;;;;;;;2.45;1.50;;;21.40;71.50;;;;;;5143732;27;45381;-74
2022/09/24 04:31:03;;;;;;;2.00;1.30;;;21.50;71.30;;;;;;5144143;27;45556;-74
2022/09/24 04:33:30;;;;;;;1.30;1.10;;;21.50;71.30;;;;;;5146657;27;45339;-74
2022/09/24 04:35:56;;;;;;;1.63;1.30;;;21.50;71.50;;;;;;5147146;27;45311;-74
2022/09/24 04:38:23;;;;;;;1.48;1.00;;;21.50;71.40;;;;;;5131740;27;45368;-74
2022/09/24 04:40:50;;;;;;;1.48;0.93;;;21.40;71.20;;;;;;5146554;27;45561;-75
2022/09/24 04:43:17;;;;;;;1.45;1.08;;;21.50;71.20;;;;;;5145094;27;48227;-74
2022/09/24 04:45:45;;;;;;;1.50;1.15;;;21.50;71.20;;;;;;5147711;27;45481;-74
2022/09/24 04:48:13;;;;;;;1.35;1.20;;;21.50;71.30;;;;;;5137019;27;45350;-74
2022/09/24 04:50:40;;;;;;;1.85;1.15;;;21.50;71.40;;;;;;5146231;27;45477;-74
2022/09/24 04:53:06;;;;;;;1.30;1.10;;;21.50;71.20;;;;;;5127972;27;47087;-73
2022/09/24 04:55:33;;;;;;;1.63;1.10;;;21.50;71.30;;;;;;5134763;27;45430;-74
2022/09/24 04:58:00;;;;;;;1.60;1.05;;;21.50;71.20;;;;;;5146821;27;45318;-74
2022/09/24 05:00:27;;;;;;;1.58;1.30;;;21.50;71.20;;;;;;5139369;27;45569;-74
2022/09/24 05:03:02;;;;;;;1.65;0.95;;;21.50;71.40;;;;;;5145355;27;45648;-73
2022/09/24 05:05:29;;;;;;;1.20;1.10;;;21.50;71.20;;;;;;5137223;27;45405;-74
2022/09/24 05:07:57;;;;;;;1.10;1.00;;;21.50;71.10;;;;;;5133558;27;45448;-74
2022/09/24 05:10:25;;;;;;;1.70;1.05;;;21.50;71.50;;;;;;5145914;27;45242;-74
2022/09/24 05:12:52;;;;;;;1.42;1.00;;;21.50;71.30;;;;;;5131433;27;47603;-74
2022/09/24 05:15:19;;;;;;;1.17;1.08;;;21.50;71.30;;;;;;5145082;27;45217;-75
2022/09/24 05:17:46;;;;;;;1.25;1.13;;;21.50;71.50;;;;;;5141044;27;45298;-74
2022/09/24 05:20:16;;;;;;;1.27;1.10;;;21.40;71.40;;;;;;5144533;27;45408;-74
2022/09/24 05:22:43;;;;;;;1.40;1.02;;;21.40;71.20;;;;;;5138952;27;46771;-74
2022/09/24 05:25:11;;;;;;;2.17;1.10;;;21.50;71.40;;;;;;5145772;27;45265;-75
2022/09/24 05:27:42;;;;;;;1.63;1.27;;;21.50;71.30;;;;;;5139377;27;45299;-74
2022/09/24 05:30:09;;;;;;;2.17;1.30;;;21.50;71.40;;;;;;5126338;27;45499;-74
2022/09/24 05:32:36;;;;;;;1.73;1.10;;;21.50;71.60;;;;;;5139832;27;46613;-74
2022/09/24 05:35:05;;;;;;;1.42;1.15;;;21.50;71.40;;;;;;5146240;27;45466;-74
2022/09/24 05:37:33;;;;;;;1.73;1.33;;;21.50;71.20;;;;;;5145715;27;45476;-74
2022/09/24 05:40:46;;;;;;;1.90;1.40;;;21.40;71.20;;;;;;5142114;27;45347;-74
2022/09/24 05:42:47;;;;;;;1.95;1.10;;;21.40;71.20;;;;;;5144948;27;46045;-74
2022/09/24 05:45:17;;;;;;;3.50;1.58;;;21.40;71.40;;;;;;5145574;27;45382;-74
2022/09/24 05:47:44;;;;;;;1.23;1.00;;;21.50;71.40;;;;;;5140104;27;45294;-74
2022/09/24 05:50:11;;;;;;;1.40;1.05;;;21.40;71.50;;;;;;5143011;27;45258;-74
2022/09/24 05:52:41;;;;;;;2.13;1.10;;;21.50;71.50;;;;;;5146002;27;46325;-74
2022/09/24 05:55:09;;;;;;;1.20;1.02;;;21.50;71.50;;;;;;5138430;27;45476;-74
2022/09/24 05:57:36;;;;;;;1.52;1.05;;;21.50;71.60;;;;;;5141145;27;45497;-74
2022/09/24 06:00:04;;;;;;;1.60;1.17;;;21.50;71.70;;;;;;5143797;27;45334;-74
2022/09/24 06:02:31;;;;;;;1.52;1.20;;;21.50;71.70;;;;;;5137428;27;47227;-74
2022/09/24 06:04:58;;;;;;;2.13;1.13;;;21.50;71.70;;;;;;5146068;27;45429;-74
2022/09/24 06:07:24;;;;;;;2.25;1.02;;;21.40;71.70;;;;;;5145744;27;45380;-74
2022/09/24 06:09:54;;;;;;;2.08;1.23;;;21.50;71.70;;;;;;5145631;27;45268;-74
2022/09/24 06:12:20;;;;;;;1.50;1.00;;;21.40;71.70;;;;;;5145732;27;46501;-74
2022/09/24 06:14:47;;;;;;;1.70;1.00;;;21.50;71.80;;;;;;5145044;27;45593;-74
2022/09/24 06:17:14;;;;;;;1.80;1.08;;;21.40;71.70;;;;;;5129402;27;45359;-74
2022/09/24 06:19:41;;;;;;;1.40;1.10;;;21.40;71.70;;;;;;5130534;27;45261;-74
2022/09/24 06:22:08;;;;;;;1.80;1.20;;;21.40;71.70;;;;;;5140319;27;47593;-74
2022/09/24 06:24:35;;;;;;;2.28;1.13;;;21.40;71.70;;;;;;5132812;27;45404;-74
2022/09/24 06:27:04;;;;;;;1.63;1.23;;;21.40;72.80;;;;;;5140446;27;45384;-74
2022/09/24 06:29:32;;;;;;;1.30;1.15;;;21.40;71.90;;;;;;5133047;27;45374;-74
2022/09/24 06:31:58;;;;;;;1.60;1.20;;;21.50;71.80;;;;;;5133935;27;45444;-74
2022/09/24 06:34:25;;;;;;;1.33;1.00;;;21.50;71.80;;;;;;5140230;27;45398;-74
2022/09/24 06:36:54;;;;;;;2.03;1.25;;;21.50;72.80;;;;;;5141652;27;45417;-74
2022/09/24 06:39:24;;;;;;;1.98;1.33;;;21.40;71.40;;;;;;5142378;27;45529;-73
2022/09/24 06:41:51;;;;;;;1.80;1.30;;;21.50;71.20;;;;;;5141888;27;47355;-73
2022/09/24 06:44:20;;;;;;;1.42;1.20;;;21.50;71.40;;;;;;5135424;27;45331;-74
2022/09/24 06:46:46;;;;;;;1.15;1.05;;;21.50;71.10;;;;;;5145993;27;45312;-73
2022/09/24 06:49:13;;;;;;;1.98;1.30;;;21.40;71.00;;;;;;5136391;27;45430;-74
2022/09/24 06:51:40;;;;;;;1.70;1.33;;;21.40;71.00;;;;;;5147773;27;47488;-74
2022/09/24 06:54:07;;;;;;;1.95;1.25;;;21.50;71.10;;;;;;5139229;27;45298;-73
2022/09/24 06:56:33;;;;;;;1.85;1.25;;;21.50;71.10;;;;;;5140624;27;45396;-73
2022/09/24 06:59:00;;;;;;;2.25;1.27;;;21.50;71.20;;;;;;5131618;27;45442;-74
2022/09/24 07:01:28;;;;;;;2.72;1.50;;;21.50;71.30;;;;;;5138493;27;47373;-74
2022/09/24 07:03:55;;;;;;;1.40;1.15;;;21.50;71.30;;;;;;5148732;27;45871;-74
2022/09/24 07:06:23;;;;;;;1.98;1.38;;;21.50;71.40;;;;;;5133677;27;45477;-74
2022/09/24 07:08:51;;;;;;;1.58;1.40;;;21.50;71.50;;;;;;5131645;27;45402;-75
2022/09/24 07:11:17;;;;;;;1.88;1.40;;;21.50;71.60;;;;;;5142557;27;45489;-74
2022/09/24 07:13:44;;;;;;;3.05;1.20;;;21.50;71.60;;;;;;5146577;27;45615;-74
2022/09/24 07:16:11;;;;;;;1.67;1.27;;;21.50;71.60;;;;;;5142696;27;45447;-74
2022/09/24 07:18:39;;;;;;;1.73;1.50;;;21.50;71.80;;;;;;5143123;27;45511;-74
2022/09/24 07:21:06;;;;;;;1.50;1.25;;;21.50;71.80;;;;;;5136388;27;47313;-74
2022/09/24 07:23:33;;;;;;;2.53;1.42;;;21.50;71.90;;;;;;5141132;27;45377;-74
2022/09/24 07:26:00;;;;;;;2.03;1.20;;;21.50;71.90;;;;;;5146518;27;45354;-74
2022/09/24 07:28:27;;;;;;;1.52;1.30;;;21.50;71.90;;;;;;5143543;27;45280;-74
2022/09/24 07:31:00;;;;;;;1.60;1.27;;;21.50;72.00;;;;;;5134743;27;46619;-74
2022/09/24 07:33:27;;;;;;;1.40;1.10;;;21.50;72.00;;;;;;5143889;27;45950;-74
2022/09/24 07:35:57;;;;;;;1.73;1.15;;;21.50;72.10;;;;;;5136714;27;45476;-74
2022/09/24 07:38:23;;;;;;;2.05;1.33;;;21.50;72.10;;;;;;5133873;27;45316;-73
2022/09/24 07:40:51;;;;;;;1.42;1.13;;;21.50;72.30;;;;;;5138327;27;48049;-74
2022/09/24 07:43:20;;;;;;;1.70;1.20;;;21.50;72.30;;;;;;5135117;27;45438;-73
2022/09/24 07:45:47;;;;;;;1.70;1.23;;;21.50;72.20;;;;;;5134877;27;45261;-74
2022/09/24 07:48:14;;;;;;;3.13;1.20;;;21.50;72.30;;;;;;5138119;27;45435;-74
2022/09/24 07:50:42;;;;;;;2.00;1.40;;;21.50;72.30;;;;;;5128081;27;45330;-74
2022/09/24 07:53:11;;;;;;;2.15;1.10;;;21.50;72.40;;;;;;5146950;27;45261;-74
2022/09/24 07:55:39;;;;;;;1.98;1.25;;;21.50;72.40;;;;;;5139331;27;45458;-74
2022/09/24 07:58:08;;;;;;;1.33;0.95;;;21.50;72.50;;;;;;5136424;27;45380;-74
2022/09/24 08:00:35;;;;;;;1.10;1.00;;;21.50;72.50;;;;;;5136335;27;47966;-74
2022/09/24 08:03:02;;;;;;;2.35;1.30;;;21.50;72.50;;;;;;5137459;27;45635;-74
2022/09/24 08:05:29;;;;;;;1.20;1.10;;;21.50;72.50;;;;;;5142616;27;45530;-74
2022/09/24 08:07:57;;;;;;;1.92;1.15;;;21.60;72.60;;;;;;5160385;27;45424;-74
2022/09/24 08:10:27;;;;;;;1.73;1.20;;;21.50;72.50;;;;;;5167565;27;46695;-75
2022/09/24 08:12:55;;;;;;;1.52;1.02;;;21.50;72.50;;;;;;5157062;27;45338;-73
2022/09/24 08:15:22;;;;;;;2.80;1.02;;;21.60;72.60;;;;;;5126649;27;45410;-74
2022/09/24 08:17:49;;;;;;;1.98;1.27;;;21.60;72.60;;;;;;5126479;27;45275;-73
2022/09/24 08:20:16;;;;;;;2.15;1.40;;;21.60;72.70;;;;;;5126633;27;45435;-74
2022/09/24 08:22:43;;;;;;;1.45;0.90;;;21.60;72.70;;;;;;5126172;27;45416;-74
2022/09/24 08:25:10;;;;;;;2.05;1.50;;;21.60;72.70;;;;;;5126730;27;45470;-73
2022/09/24 08:27:38;;;;;;;1.10;1.00;;;21.60;72.80;;;;;;5125421;27;45474;-74
2022/09/24 08:30:06;;;;;;;1.70;1.00;;;21.60;72.70;;;;;;5133548;27;46348;-73
2022/09/24 08:32:32;;;;;;;2.33;1.20;;;21.60;72.80;;;;;;5146868;27;45280;-74
2022/09/24 08:34:59;;;;;;;1.55;1.13;;;21.60;72.80;;;;;;5147095;27;45338;-73
2022/09/24 08:37:27;;;;;;;3.25;1.50;;;21.60;72.70;;;;;;5146972;27;45241;-73
2022/09/24 08:39:54;;;;;;;1.33;1.20;;;21.70;72.90;;;;;;5146655;27;47696;-73
2022/09/24 08:42:35;;;;;;;1.60;1.17;;;21.60;72.80;;;;;;5145950;27;45266;-74
2022/09/24 08:47:55;;;;;;;1.67;1.25;;;21.60;72.80;;;;;;5131426;27;45323;-74
2022/09/24 08:50:24;;;;;;;2.65;1.48;;;21.70;73.00;;;;;;5128627;27;46665;-74
2022/09/24 08:53:02;;;;;;;1.90;1.40;;;21.60;72.90;;;;;;5147322;27;45250;-74
2022/09/24 08:55:34;;;;;;;3.17;1.38;;;21.60;72.90;;;;;;5143888;27;45487;-74
2022/09/24 08:58:15;;;;;;;2.50;1.25;;;21.60;73.00;;;;;;5146348;27;45714;-74
2022/09/24 09:00:54;;;;;;;1.80;1.20;;;21.60;73.10;;;;;;5146181;27;47511;-74
2022/09/24 09:03:28;;;;;;;1.88;1.20;;;21.60;73.20;;;;;;5143761;27;45339;-74
2022/09/24 09:06:00;;;;;;;2.28;1.20;;;21.60;73.10;;;;;;5124746;27;45293;-74
2022/09/24 09:08:35;;;;;;;3.08;1.20;;;21.60;73.20;;;;;;5124926;27;45301;-74
2022/09/24 09:11:04;;;;;;;1.45;1.10;;;21.60;73.10;;;;;;5125459;27;47547;-74
2022/09/24 09:13:35;;;;;;;2.70;1.35;;;21.60;73.20;;;;;;5124967;27;45258;-73
2022/09/24 09:16:06;;;;;;;1.25;1.13;;;21.60;73.30;;;;;;5125754;27;45289;-74
2022/09/24 09:18:37;;;;;;;2.00;1.20;;;21.60;73.20;;;;;;5125285;27;45294;-74
2022/09/24 09:21:13;;;;;;;1.80;1.40;;;21.60;73.10;;;;;;5136107;27;47002;-74
2022/09/24 09:23:47;;;;;;;1.35;1.20;;;21.60;73.20;;;;;;5145639;27;45293;-74
2022/09/24 09:26:15;;;;;;;1.73;1.42;;;21.60;73.20;;;;;;5145914;27;45361;-74
2022/09/24 09:28:42;;;;;;;1.70;1.20;;;21.60;73.30;;;;;;5146120;27;45464;-74
2022/09/24 09:31:23;;;;;;;1.20;1.10;;;21.60;73.30;;;;;;5146300;27;47153;-74
2022/09/24 09:34:04;;;;;;;2.03;1.27;;;21.60;73.40;;;;;;5145792;27;45304;-74
2022/09/24 09:36:52;;;;;;;2.38;1.17;;;21.60;73.40;;;;;;5146169;27;45374;-74
2022/09/24 09:39:28;;;;;;;1.20;1.10;;;21.60;73.40;;;;;;5145975;27;45330;-74
2022/09/24 09:42:03;;;;;;;1.80;1.30;;;21.60;73.60;;;;;;5145677;27;46742;-73
2022/09/24 09:44:36;;;;;;;2.03;1.50;;;21.60;73.50;;;;;;5145766;27;45824;-74
2022/09/24 09:47:16;;;;;;;1.65;1.10;;;21.60;73.60;;;;;;5146148;27;45357;-73
2022/09/24 09:49:45;;;;;;;2.13;1.30;;;21.60;73.60;;;;;;5143642;27;45476;-74
2022/09/24 09:52:16;;;;;;;1.88;1.30;;;21.60;73.60;;;;;;5145450;27;46378;-74
2022/09/24 09:54:43;;;;;;;1.80;1.30;;;21.60;73.70;;;;;;5145272;27;45249;-74
2022/09/24 09:57:16;;;;;;;1.88;1.40;;;21.60;73.80;;;;;;5146999;27;45351;-74
2022/09/24 09:59:47;;;;;;;1.40;1.15;;;21.60;73.80;;;;;;5145258;27;45382;-74
2022/09/24 10:02:22;;;;;;;1.98;1.30;;;21.50;73.70;;;;;;5133467;27;47301;-73
2022/09/24 10:04:53;;;;;;;2.83;1.48;;;21.50;73.80;;;;;;5138760;27;45319;-74
2022/09/24 10:07:20;;;;;;;2.67;1.50;;;21.50;73.80;;;;;;5135525;27;45600;-74
2022/09/24 10:10:00;;;;;;;1.65;1.40;;;21.50;73.80;;;;;;5143343;27;45551;-74
2022/09/24 10:12:27;;;;;;;1.70;1.20;;;21.50;74.90;;;;;;5133073;27;45356;-73
2022/09/24 10:14:58;;;;;;;1.63;1.20;;;21.50;73.90;;;;;;5144684;27;45366;-74
2022/09/24 10:17:30;;;;;;;3.08;1.52;;;21.50;74.00;;;;;;5144734;27;45255;-74
2022/09/24 10:19:59;;;;;;;1.83;1.30;;;21.50;73.90;;;;;;5146634;27;45387;-74
2022/09/24 10:22:28;;;;;;;1.45;1.20;;;21.50;73.90;;;;;;5136905;27;45422;-73
2022/09/24 10:24:58;;;;;;;1.40;1.10;;;21.50;74.00;;;;;;5151769;27;45374;-73
2022/09/24 10:27:31;;;;;;;1.70;1.38;;;21.50;74.00;;;;;;5148601;27;45338;-74
2022/09/24 10:32:47;;;;;;;2.15;1.13;;;21.60;74.10;;;;;;5142661;27;45410;-74
2022/09/24 10:35:25;;;;;;;1.48;1.20;;;21.60;74.10;;;;;;5147167;27;45177;-73
2022/09/24 10:37:52;;;;;;;2.10;1.40;;;21.60;74.20;;;;;;5145300;27;45422;-74
2022/09/24 10:40:26;;;;;;;1.70;1.33;;;21.60;74.20;;;;;;5146326;27;45346;-72
2022/09/24 10:43:00;;;;;;;33.08;3.20;;;21.60;74.20;;;;;;5139409;27;45463;-72
2022/09/24 10:46:00;;;;;;;38.20;3.95;;;21.60;75.20;;;;;;5140986;27;45763;-73
2022/09/24 10:48:35;;;;;;;23.88;3.72;;;21.60;75.60;;;;;;5136260;27;45428;-72
2022/09/24 10:51:12;;;;;;;34.28;3.42;;;21.60;75.10;;;;;;5147618;27;45302;-73
2022/09/24 10:53:52;;;;;;;10.68;2.53;;;21.60;75.00;;;;;;5147918;27;47265;-73
2022/09/24 10:56:28;;;;;;;7.05;2.20;;;21.60;74.90;;;;;;5147544;27;45274;-72
2022/09/24 10:59:29;;;;;;;5.15;1.85;;;21.60;74.80;;;;;;5141692;27;45363;-73
2022/09/24 11:02:14;;;;;;;6.65;2.13;;;21.60;74.80;;;;;;5122942;27;45375;-72
2022/09/24 11:04:50;;;;;;;4.55;1.98;;;21.50;74.80;;;;;;5129971;27;47117;-72
2022/09/24 11:07:41;;;;;;;6.78;1.80;;;21.50;74.90;;;;;;5126050;27;45331;-72
2022/09/24 11:10:21;;;;;;;3.13;1.65;;;21.50;74.90;;;;;;5132466;27;45289;-73
2022/09/24 11:13:00;;;;;;;2.65;1.83;;;21.60;74.90;;;;;;5147602;27;45434;-73
2022/09/24 11:15:43;;;;;;;3.42;1.50;;;21.50;75.00;;;;;;5147211;27;46384;-73
2022/09/24 11:18:26;;;;;;;4.53;1.73;;;21.60;75.00;;;;;;5141720;27;45389;-73
2022/09/24 11:21:04;;;;;;;3.63;1.63;;;21.60;75.00;;;;;;5134289;27;45423;-73
2022/09/24 11:23:52;;;;;;;8.18;1.75;;;21.60;75.20;;;;;;5141524;27;45476;-72
2022/09/24 11:26:29;;;;;;;2.42;1.38;;;21.60;75.20;;;;;;5133692;27;46579;-71
2022/09/24 11:29:36;;;;;;;4.35;1.75;;;21.60;75.70;;;;;;5139843;27;45449;-73
2022/09/24 11:32:11;;;;;;;3.33;1.70;;;21.60;75.70;;;;;;5137999;27;45391;-73
2022/09/24 11:34:51;;;;;;;2.25;1.42;;;21.60;75.60;;;;;;5139707;27;45454;-73
2022/09/24 11:37:34;;;;;;;5.38;1.27;;;21.60;75.60;;;;;;5137995;27;45338;-74
2022/09/24 11:40:22;;;;;;;4.85;1.65;;;21.60;75.50;;;;;;5142841;27;45448;-74
2022/09/24 11:43:00;;;;;;;4.30;1.52;;;21.60;75.50;;;;;;5146596;27;45300;-74
2022/09/24 11:45:40;;;;;;;3.45;1.60;;;21.60;75.50;;;;;;5144414;27;45448;-73
2022/09/24 11:48:32;;;;;;;3.70;1.70;;;21.50;75.40;;;;;;5144481;27;46959;-74
2022/09/24 11:51:09;;;;;;;3.72;1.60;;;21.50;75.40;;;;;;5140446;27;46018;-74
2022/09/24 11:53:43;;;;;;;4.95;1.45;;;21.50;75.40;;;;;;5135613;27;45296;-73
2022/09/24 11:56:16;;;;;;;3.13;1.30;;;21.50;75.40;;;;;;5138061;27;45408;-73
2022/09/24 11:58:47;;;;;;;4.22;1.30;;;21.50;75.40;;;;;;5146151;27;47615;-73
2022/09/24 12:01:18;;;;;;;3.65;1.70;;;21.50;75.40;;;;;;5144148;27;45220;-74
2022/09/24 12:03:51;;;;;;;2.00;1.30;;;21.50;75.40;;;;;;5144563;27;45503;-74
2022/09/24 12:06:24;;;;;;;6.30;1.55;;;21.50;75.30;;;;;;5146062;27;45528;-74
2022/09/24 12:08:57;;;;;;;3.20;1.75;;;21.50;75.40;;;;;;5148194;27;48029;-73
2022/09/24 12:11:29;;;;;;;2.85;1.60;;;21.50;75.20;;;;;;5135763;27;45264;-73
2022/09/24 12:14:01;;;;;;;2.58;1.45;;;21.60;75.30;;;;;;5141090;27;45409;-74
2022/09/24 12:16:32;;;;;;;4.25;1.13;;;21.50;75.30;;;;;;5140816;27;45412;-74
2022/09/24 12:19:06;;;;;;;2.05;1.40;;;21.50;75.20;;;;;;5139814;27;46564;-74
2022/09/24 12:21:39;;;;;;;2.50;1.45;;;21.50;75.10;;;;;;5132728;27;45489;-74
2022/09/24 12:24:15;;;;;;;2.90;1.52;;;21.50;76.10;;;;;;5132337;27;45354;-74
2022/09/24 12:26:43;;;;;;;5.65;1.65;;;21.50;75.10;;;;;;5145337;27;45355;-72
2022/09/24 12:35:17;;;;;;;2.40;1.23;;;21.60;76.50;;;;;;5139037;27;45346;-72
2022/09/24 12:37:46;;;;;;;3.35;1.55;;;21.60;75.40;;;;;;5131813;27;45466;-72
2022/09/24 12:40:35;;;;;;;1.83;1.40;;;21.60;75.30;;;;;;5136616;27;46279;-72
2022/09/24 12:43:07;;;;;;;2.67;1.58;;;21.60;75.40;;;;;;5139329;27;45897;-72
2022/09/24 12:45:36;;;;;;;6.25;1.50;;;21.60;75.40;;;;;;5129880;27;45488;-73
2022/09/24 12:48:03;;;;;;;2.40;1.48;;;21.60;75.50;;;;;;5138476;27;45436;-73
2022/09/24 12:50:32;;;;;;;7.90;1.98;;;21.60;75.60;;;;;;5134855;27;48053;-72
2022/09/24 12:52:59;;;;;;;5.53;1.60;;;21.60;75.60;;;;;;5131289;27;45565;-72
2022/09/24 12:55:30;;;;;;;4.35;1.50;;;21.60;75.50;;;;;;5136475;27;45443;-72
2022/09/24 12:58:00;;;;;;;5.28;1.73;;;21.60;75.50;;;;;;5139682;27;45343;-73
2022/09/24 13:00:40;;;;;;;3.17;1.52;;;21.60;75.60;;;;;;5143582;27;47079;-72
2022/09/24 13:03:27;;;;;;;8.35;1.80;;;21.60;75.60;;;;;;5133731;27;45510;-72
2022/09/24 13:05:58;;;;;;;1.85;1.30;;;21.60;75.60;;;;;;5144921;27;45344;-72
2022/09/24 13:08:27;;;;;;;2.83;1.70;;;21.60;75.60;;;;;;5144160;27;45424;-72
2022/09/24 13:10:57;;;;;;;2.95;1.50;;;21.60;76.60;;;;;;5143427;27;47410;-72
2022/09/24 13:13:27;;;;;;;2.92;1.45;;;21.60;75.60;;;;;;5144238;27;45970;-72
2022/09/24 13:16:01;;;;;;;4.05;1.60;;;21.60;75.60;;;;;;5146026;27;45556;-72
2022/09/24 13:18:28;;;;;;;3.00;1.50;;;21.60;75.60;;;;;;5142994;27;45553;-72